sensor_id;sensor_type;location;lat;lon;timestamp;P1;durP1;ratioP1;P2;durP2;ratioP2
29776;SDS011;16677;52.224;7.484;2023-10-13T00:00:30;42.33;;;32.13;;
29776;SDS011;16677;52.224;7.484;2023-10-13T00:03:02;43.63;;;32.03;;
29776;SDS011;16677;52.224;7.484;2023-10-13T00:05:30;46.30;;;33.37;;
29776;SDS011;16677;52.224;7.484;2023-10-13T00:07:58;44.53;;;34.37;;
29776;SDS011;16677;52.224;7.484;2023-10-13T00:10:30;41.90;;;32.80;;
29776;SDS011;16677;52.224;7.484;2023-10-13T00:13:00;43.20;;;32.70;;
29776;SDS011;16677;52.224;7.484;2023-10-13T00:15:43;43.60;;;32.33;;
29776;SDS011;16677;52.224;7.484;2023-10-13T00:18:31;43.73;;;32.47;;
29776;SDS011;16677;52.224;7.484;2023-10-13T00:21:10;41.37;;;32.60;;
29776;SDS011;16677;52.224;7.484;2023-10-13T00:23:43;43.10;;;32.70;;
29776;SDS011;16677;52.224;7.484;2023-10-13T00:26:24;41.40;;;31.47;;
29776;SDS011;16677;52.224;7.484;2023-10-13T00:28:57;43.17;;;32.67;;
29776;SDS011;16677;52.224;7.484;2023-10-13T00:31:36;40.17;;;30.77;;
29776;SDS011;16677;52.224;7.484;2023-10-13T00:34:10;39.03;;;30.07;;
29776;SDS011;16677;52.224;7.484;2023-10-13T00:36:40;38.20;;;29.10;;
29776;SDS011;16677;52.224;7.484;2023-10-13T00:39:26;35.70;;;28.73;;
29776;SDS011;16677;52.224;7.484;2023-10-13T00:42:00;37.00;;;29.00;;
29776;SDS011;16677;52.224;7.484;2023-10-13T00:44:34;38.30;;;29.20;;
29776;SDS011;16677;52.224;7.484;2023-10-13T00:47:08;45.53;;;29.33;;
29776;SDS011;16677;52.224;7.484;2023-10-13T00:49:36;35.40;;;28.73;;
29776;SDS011;16677;52.224;7.484;2023-10-13T00:52:06;38.17;;;29.70;;
29776;SDS011;16677;52.224;7.484;2023-10-13T00:54:37;38.67;;;28.50;;
29776;SDS011;16677;52.224;7.484;2023-10-13T00:57:05;36.90;;;29.40;;
29776;SDS011;16677;52.224;7.484;2023-10-13T00:59:38;39.97;;;29.87;;
29776;SDS011;16677;52.224;7.484;2023-10-13T01:02:08;42.23;;;29.00;;
29776;SDS011;16677;52.224;7.484;2023-10-13T01:04:55;38.77;;;30.03;;
29776;SDS011;16677;52.224;7.484;2023-10-13T01:07:24;36.73;;;27.90;;
29776;SDS011;16677;52.224;7.484;2023-10-13T01:09:52;36.60;;;29.57;;
29776;SDS011;16677;52.224;7.484;2023-10-13T01:12:21;40.13;;;30.07;;
29776;SDS011;16677;52.224;7.484;2023-10-13T01:14:51;34.07;;;28.77;;
29776;SDS011;16677;52.224;7.484;2023-10-13T01:17:18;39.37;;;28.83;;
29776;SDS011;16677;52.224;7.484;2023-10-13T01:19:45;40.30;;;28.40;;
29776;SDS011;16677;52.224;7.484;2023-10-13T01:22:15;39.30;;;29.73;;
29776;SDS011;16677;52.224;7.484;2023-10-13T01:24:44;35.73;;;28.83;;
29776;SDS011;16677;52.224;7.484;2023-10-13T01:27:12;38.27;;;28.10;;
29776;SDS011;16677;52.224;7.484;2023-10-13T01:29:41;35.30;;;28.97;;
29776;SDS011;16677;52.224;7.484;2023-10-13T01:32:19;33.07;;;28.30;;
29776;SDS011;16677;52.224;7.484;2023-10-13T01:34:48;38.47;;;28.63;;
29776;SDS011;16677;52.224;7.484;2023-10-13T01:37:17;34.07;;;28.07;;
29776;SDS011;16677;52.224;7.484;2023-10-13T01:39:46;38.90;;;29.70;;
29776;SDS011;16677;52.224;7.484;2023-10-13T01:42:16;38.10;;;27.67;;
29776;SDS011;16677;52.224;7.484;2023-10-13T01:44:51;32.67;;;27.30;;
29776;SDS011;16677;52.224;7.484;2023-10-13T01:47:26;34.67;;;28.03;;
29776;SDS011;16677;52.224;7.484;2023-10-13T01:49:54;33.33;;;28.60;;
29776;SDS011;16677;52.224;7.484;2023-10-13T01:52:24;34.90;;;28.03;;
29776;SDS011;16677;52.224;7.484;2023-10-13T01:54:54;33.67;;;27.63;;
29776;SDS011;16677;52.224;7.484;2023-10-13T01:57:23;31.90;;;28.03;;
29776;SDS011;16677;52.224;7.484;2023-10-13T01:59:50;29.87;;;25.90;;
29776;SDS011;16677;52.224;7.484;2023-10-13T02:02:17;37.77;;;28.10;;
29776;SDS011;16677;52.224;7.484;2023-10-13T02:04:56;30.23;;;25.97;;
29776;SDS011;16677;52.224;7.484;2023-10-13T02:07:27;33.50;;;25.67;;
29776;SDS011;16677;52.224;7.484;2023-10-13T02:09:57;34.10;;;25.17;;
29776;SDS011;16677;52.224;7.484;2023-10-13T02:12:25;28.40;;;23.93;;
29776;SDS011;16677;52.224;7.484;2023-10-13T02:15:03;27.70;;;24.70;;
29776;SDS011;16677;52.224;7.484;2023-10-13T02:17:31;27.90;;;24.10;;
29776;SDS011;16677;52.224;7.484;2023-10-13T02:20:08;33.80;;;25.00;;
29776;SDS011;16677;52.224;7.484;2023-10-13T02:22:41;29.53;;;23.23;;
29776;SDS011;16677;52.224;7.484;2023-10-13T02:25:18;27.50;;;23.17;;
29776;SDS011;16677;52.224;7.484;2023-10-13T02:28:09;29.97;;;22.57;;
29776;SDS011;16677;52.224;7.484;2023-10-13T02:30:41;26.70;;;22.87;;
29776;SDS011;16677;52.224;7.484;2023-10-13T02:33:15;25.57;;;21.80;;
29776;SDS011;16677;52.224;7.484;2023-10-13T02:35:48;28.33;;;22.67;;
29776;SDS011;16677;52.224;7.484;2023-10-13T02:38:24;28.07;;;22.50;;
29776;SDS011;16677;52.224;7.484;2023-10-13T02:40:54;25.60;;;22.20;;
29776;SDS011;16677;52.224;7.484;2023-10-13T02:43:26;25.23;;;21.27;;
29776;SDS011;16677;52.224;7.484;2023-10-13T02:45:59;23.40;;;20.90;;
29776;SDS011;16677;52.224;7.484;2023-10-13T02:48:28;27.53;;;21.47;;
29776;SDS011;16677;52.224;7.484;2023-10-13T02:51:08;26.60;;;20.67;;
29776;SDS011;16677;52.224;7.484;2023-10-13T02:53:42;25.20;;;20.13;;
29776;SDS011;16677;52.224;7.484;2023-10-13T02:56:13;23.27;;;20.40;;
29776;SDS011;16677;52.224;7.484;2023-10-13T02:58:47;26.00;;;20.53;;
29776;SDS011;16677;52.224;7.484;2023-10-13T03:01:36;31.37;;;20.47;;
29776;SDS011;16677;52.224;7.484;2023-10-13T03:04:06;25.37;;;21.57;;
29776;SDS011;16677;52.224;7.484;2023-10-13T03:06:35;21.87;;;19.57;;
29776;SDS011;16677;52.224;7.484;2023-10-13T03:09:10;22.80;;;20.13;;
29776;SDS011;16677;52.224;7.484;2023-10-13T03:11:42;25.97;;;18.77;;
29776;SDS011;16677;52.224;7.484;2023-10-13T03:16:59;24.10;;;18.53;;
29776;SDS011;16677;52.224;7.484;2023-10-13T03:19:43;22.70;;;17.97;;
29776;SDS011;16677;52.224;7.484;2023-10-13T03:22:20;22.13;;;17.60;;
29776;SDS011;16677;52.224;7.484;2023-10-13T03:25:00;21.23;;;18.33;;
29776;SDS011;16677;52.224;7.484;2023-10-13T03:27:35;18.00;;;16.10;;
29776;SDS011;16677;52.224;7.484;2023-10-13T03:30:28;22.30;;;17.13;;
29776;SDS011;16677;52.224;7.484;2023-10-13T03:33:02;20.57;;;17.50;;
29776;SDS011;16677;52.224;7.484;2023-10-13T03:35:34;23.63;;;16.73;;
29776;SDS011;16677;52.224;7.484;2023-10-13T03:38:06;24.10;;;16.90;;
29776;SDS011;16677;52.224;7.484;2023-10-13T03:40:47;21.77;;;16.13;;
29776;SDS011;16677;52.224;7.484;2023-10-13T03:43:22;21.43;;;16.10;;
29776;SDS011;16677;52.224;7.484;2023-10-13T03:45:50;25.17;;;15.73;;
29776;SDS011;16677;52.224;7.484;2023-10-13T03:48:38;18.23;;;16.00;;
29776;SDS011;16677;52.224;7.484;2023-10-13T03:51:19;22.43;;;16.97;;
29776;SDS011;16677;52.224;7.484;2023-10-13T03:53:46;18.57;;;15.87;;
29776;SDS011;16677;52.224;7.484;2023-10-13T03:56:21;19.30;;;15.80;;
29776;SDS011;16677;52.224;7.484;2023-10-13T03:59:01;19.53;;;15.83;;
29776;SDS011;16677;52.224;7.484;2023-10-13T04:01:32;19.63;;;16.07;;
29776;SDS011;16677;52.224;7.484;2023-10-13T04:04:15;18.47;;;15.77;;
29776;SDS011;16677;52.224;7.484;2023-10-13T04:07:06;20.10;;;15.80;;
29776;SDS011;16677;52.224;7.484;2023-10-13T04:09:36;19.43;;;16.37;;
29776;SDS011;16677;52.224;7.484;2023-10-13T04:12:26;19.93;;;16.03;;
29776;SDS011;16677;52.224;7.484;2023-10-13T04:15:12;19.77;;;16.90;;
29776;SDS011;16677;52.224;7.484;2023-10-13T04:17:44;22.23;;;17.93;;
29776;SDS011;16677;52.224;7.484;2023-10-13T04:20:15;22.50;;;16.47;;
29776;SDS011;16677;52.224;7.484;2023-10-13T04:22:53;23.07;;;17.63;;
29776;SDS011;16677;52.224;7.484;2023-10-13T04:25:40;19.73;;;17.53;;
29776;SDS011;16677;52.224;7.484;2023-10-13T04:28:12;23.67;;;18.03;;
29776;SDS011;16677;52.224;7.484;2023-10-13T04:33:27;21.00;;;18.07;;
29776;SDS011;16677;52.224;7.484;2023-10-13T04:36:05;22.90;;;18.67;;
29776;SDS011;16677;52.224;7.484;2023-10-13T04:38:55;21.07;;;18.70;;
29776;SDS011;16677;52.224;7.484;2023-10-13T04:41:32;22.77;;;19.63;;
29776;SDS011;16677;52.224;7.484;2023-10-13T04:44:30;23.57;;;17.87;;
29776;SDS011;16677;52.224;7.484;2023-10-13T04:47:15;23.37;;;17.70;;
29776;SDS011;16677;52.224;7.484;2023-10-13T04:49:48;21.03;;;18.20;;
29776;SDS011;16677;52.224;7.484;2023-10-13T04:52:15;25.50;;;18.03;;
29776;SDS011;16677;52.224;7.484;2023-10-13T04:55:15;26.53;;;18.20;;
29776;SDS011;16677;52.224;7.484;2023-10-13T04:57:45;26.63;;;19.30;;
29776;SDS011;16677;52.224;7.484;2023-10-13T05:00:12;23.83;;;18.67;;
29776;SDS011;16677;52.224;7.484;2023-10-13T05:02:46;23.17;;;18.87;;
29776;SDS011;16677;52.224;7.484;2023-10-13T05:05:26;22.63;;;19.20;;
29776;SDS011;16677;52.224;7.484;2023-10-13T05:08:26;27.10;;;18.13;;
29776;SDS011;16677;52.224;7.484;2023-10-13T05:11:12;23.17;;;18.67;;
29776;SDS011;16677;52.224;7.484;2023-10-13T05:13:57;24.13;;;19.00;;
29776;SDS011;16677;52.224;7.484;2023-10-13T05:17:03;22.33;;;19.20;;
29776;SDS011;16677;52.224;7.484;2023-10-13T05:19:48;24.27;;;19.17;;
29776;SDS011;16677;52.224;7.484;2023-10-13T05:22:34;22.00;;;19.17;;
29776;SDS011;16677;52.224;7.484;2023-10-13T05:25:19;25.17;;;18.37;;
29776;SDS011;16677;52.224;7.484;2023-10-13T05:28:05;22.77;;;17.40;;
29776;SDS011;16677;52.224;7.484;2023-10-13T05:31:01;24.07;;;17.07;;
29776;SDS011;16677;52.224;7.484;2023-10-13T05:33:48;19.67;;;15.77;;
29776;SDS011;16677;52.224;7.484;2023-10-13T05:36:33;20.60;;;15.33;;
29776;SDS011;16677;52.224;7.484;2023-10-13T05:39:19;18.77;;;15.20;;
29776;SDS011;16677;52.224;7.484;2023-10-13T05:42:05;18.67;;;14.67;;
29776;SDS011;16677;52.224;7.484;2023-10-13T05:44:50;19.17;;;15.20;;
29776;SDS011;16677;52.224;7.484;2023-10-13T05:47:43;17.10;;;15.27;;
29776;SDS011;16677;52.224;7.484;2023-10-13T05:50:11;19.17;;;15.17;;
29776;SDS011;16677;52.224;7.484;2023-10-13T05:52:49;18.30;;;16.13;;
29776;SDS011;16677;52.224;7.484;2023-10-13T05:55:26;20.23;;;17.07;;
29776;SDS011;16677;52.224;7.484;2023-10-13T05:58:12;22.20;;;18.13;;
29776;SDS011;16677;52.224;7.484;2023-10-13T06:00:59;24.07;;;19.63;;
29776;SDS011;16677;52.224;7.484;2023-10-13T06:03:45;23.67;;;20.17;;
29776;SDS011;16677;52.224;7.484;2023-10-13T06:06:31;33.90;;;21.33;;
29776;SDS011;16677;52.224;7.484;2023-10-13T06:09:17;25.60;;;21.17;;
29776;SDS011;16677;52.224;7.484;2023-10-13T06:12:02;27.57;;;23.13;;
29776;SDS011;16677;52.224;7.484;2023-10-13T06:14:48;29.77;;;22.57;;
29776;SDS011;16677;52.224;7.484;2023-10-13T06:17:34;28.80;;;23.37;;
29776;SDS011;16677;52.224;7.484;2023-10-13T06:20:37;24.27;;;21.63;;
29776;SDS011;16677;52.224;7.484;2023-10-13T06:23:24;27.20;;;21.33;;
29776;SDS011;16677;52.224;7.484;2023-10-13T06:26:09;30.43;;;22.43;;
29776;SDS011;16677;52.224;7.484;2023-10-13T06:28:55;26.40;;;23.13;;
29776;SDS011;16677;52.224;7.484;2023-10-13T06:31:22;31.70;;;22.13;;
29776;SDS011;16677;52.224;7.484;2023-10-13T06:33:50;31.93;;;23.87;;
29776;SDS011;16677;52.224;7.484;2023-10-13T06:36:17;30.50;;;24.23;;
29776;SDS011;16677;52.224;7.484;2023-10-13T06:38:44;32.30;;;24.20;;
29776;SDS011;16677;52.224;7.484;2023-10-13T06:41:19;33.83;;;25.73;;
29776;SDS011;16677;52.224;7.484;2023-10-13T06:43:57;30.17;;;25.67;;
29776;SDS011;16677;52.224;7.484;2023-10-13T06:46:27;30.83;;;25.20;;
29776;SDS011;16677;52.224;7.484;2023-10-13T06:48:55;30.47;;;26.03;;
29776;SDS011;16677;52.224;7.484;2023-10-13T06:51:26;35.43;;;27.10;;
29776;SDS011;16677;52.224;7.484;2023-10-13T06:53:58;32.77;;;26.30;;
29776;SDS011;16677;52.224;7.484;2023-10-13T06:56:25;27.93;;;25.13;;
29776;SDS011;16677;52.224;7.484;2023-10-13T06:58:54;28.73;;;25.73;;
29776;SDS011;16677;52.224;7.484;2023-10-13T07:01:31;25.83;;;23.07;;
29776;SDS011;16677;52.224;7.484;2023-10-13T07:04:06;25.07;;;21.20;;
29776;SDS011;16677;52.224;7.484;2023-10-13T07:06:40;22.20;;;20.10;;
29776;SDS011;16677;52.224;7.484;2023-10-13T07:09:15;17.60;;;15.90;;
29776;SDS011;16677;52.224;7.484;2023-10-13T07:12:04;18.27;;;16.13;;
29776;SDS011;16677;52.224;7.484;2023-10-13T07:14:49;16.27;;;14.67;;
29776;SDS011;16677;52.224;7.484;2023-10-13T07:17:19;15.13;;;13.63;;
29776;SDS011;16677;52.224;7.484;2023-10-13T07:19:53;12.77;;;11.47;;
29776;SDS011;16677;52.224;7.484;2023-10-13T07:22:22;15.97;;;12.13;;
29776;SDS011;16677;52.224;7.484;2023-10-13T07:24:50;12.57;;;11.20;;
29776;SDS011;16677;52.224;7.484;2023-10-13T07:27:17;10.83;;;9.77;;
29776;SDS011;16677;52.224;7.484;2023-10-13T07:29:55;12.57;;;9.60;;
29776;SDS011;16677;52.224;7.484;2023-10-13T07:32:23;10.43;;;8.73;;
29776;SDS011;16677;52.224;7.484;2023-10-13T07:37:20;10.00;;;7.90;;
29776;SDS011;16677;52.224;7.484;2023-10-13T07:39:56;9.63;;;8.70;;
29776;SDS011;16677;52.224;7.484;2023-10-13T07:42:25;9.23;;;8.40;;
29776;SDS011;16677;52.224;7.484;2023-10-13T07:47:26;10.53;;;7.83;;
29776;SDS011;16677;52.224;7.484;2023-10-13T07:49:54;8.07;;;7.10;;
29776;SDS011;16677;52.224;7.484;2023-10-13T07:52:23;9.57;;;7.60;;
29776;SDS011;16677;52.224;7.484;2023-10-13T07:55:03;9.70;;;7.50;;
29776;SDS011;16677;52.224;7.484;2023-10-13T07:57:47;11.47;;;7.50;;
29776;SDS011;16677;52.224;7.484;2023-10-13T08:00:22;10.17;;;7.63;;
29776;SDS011;16677;52.224;7.484;2023-10-13T08:02:59;8.17;;;7.40;;
29776;SDS011;16677;52.224;7.484;2023-10-13T08:05:55;11.57;;;8.43;;
29776;SDS011;16677;52.224;7.484;2023-10-13T08:08:31;9.37;;;7.87;;
29776;SDS011;16677;52.224;7.484;2023-10-13T08:11:07;10.30;;;8.17;;
29776;SDS011;16677;52.224;7.484;2023-10-13T08:13:58;11.67;;;8.90;;
29776;SDS011;16677;52.224;7.484;2023-10-13T08:16:29;12.53;;;9.47;;
29776;SDS011;16677;52.224;7.484;2023-10-13T08:19:15;12.03;;;10.20;;
29776;SDS011;16677;52.224;7.484;2023-10-13T08:21:44;11.13;;;10.03;;
29776;SDS011;16677;52.224;7.484;2023-10-13T08:24:18;11.67;;;10.50;;
29776;SDS011;16677;52.224;7.484;2023-10-13T08:26:55;13.37;;;12.03;;
29776;SDS011;16677;52.224;7.484;2023-10-13T08:32:21;13.93;;;12.43;;
29776;SDS011;16677;52.224;7.484;2023-10-13T08:34:52;16.93;;;13.23;;
29776;SDS011;16677;52.224;7.484;2023-10-13T08:37:23;13.47;;;11.87;;
29776;SDS011;16677;52.224;7.484;2023-10-13T08:42:53;14.13;;;12.20;;
29776;SDS011;16677;52.224;7.484;2023-10-13T08:45:31;16.00;;;12.93;;
29776;SDS011;16677;52.224;7.484;2023-10-13T08:48:03;15.37;;;12.97;;
29776;SDS011;16677;52.224;7.484;2023-10-13T08:56:09;18.67;;;13.37;;
29776;SDS011;16677;52.224;7.484;2023-10-13T08:58:55;17.00;;;13.07;;
29776;SDS011;16677;52.224;7.484;2023-10-13T09:01:29;15.90;;;11.83;;
29776;SDS011;16677;52.224;7.484;2023-10-13T09:04:04;18.37;;;12.10;;
29776;SDS011;16677;52.224;7.484;2023-10-13T09:06:49;13.23;;;11.40;;
29776;SDS011;16677;52.224;7.484;2023-10-13T09:09:26;18.80;;;11.43;;
29776;SDS011;16677;52.224;7.484;2023-10-13T09:14:52;15.70;;;8.97;;
29776;SDS011;16677;52.224;7.484;2023-10-13T09:17:27;14.33;;;8.20;;
29776;SDS011;16677;52.224;7.484;2023-10-13T09:20:00;16.47;;;8.80;;
29776;SDS011;16677;52.224;7.484;2023-10-13T09:22:55;17.47;;;8.50;;
29776;SDS011;16677;52.224;7.484;2023-10-13T09:25:28;14.00;;;8.10;;
29776;SDS011;16677;52.224;7.484;2023-10-13T09:28:03;14.50;;;7.83;;
29776;SDS011;16677;52.224;7.484;2023-10-13T09:30:48;13.57;;;7.83;;
29776;SDS011;16677;52.224;7.484;2023-10-13T09:33:19;12.97;;;7.13;;
29776;SDS011;16677;52.224;7.484;2023-10-13T09:35:59;10.90;;;6.67;;
29776;SDS011;16677;52.224;7.484;2023-10-13T09:38:27;12.77;;;6.80;;
29776;SDS011;16677;52.224;7.484;2023-10-13T09:40:55;13.47;;;7.17;;
29776;SDS011;16677;52.224;7.484;2023-10-13T09:43:24;10.67;;;6.13;;
29776;SDS011;16677;52.224;7.484;2023-10-13T09:45:56;14.23;;;6.00;;
29776;SDS011;16677;52.224;7.484;2023-10-13T09:48:36;14.60;;;6.53;;
29776;SDS011;16677;52.224;7.484;2023-10-13T09:51:11;15.43;;;6.00;;
29776;SDS011;16677;52.224;7.484;2023-10-13T09:53:55;10.93;;;5.93;;
29776;SDS011;16677;52.224;7.484;2023-10-13T09:57:02;15.10;;;6.53;;
29776;SDS011;16677;52.224;7.484;2023-10-13T09:59:46;10.87;;;5.83;;
29776;SDS011;16677;52.224;7.484;2023-10-13T10:02:19;13.87;;;6.00;;
29776;SDS011;16677;52.224;7.484;2023-10-13T10:04:56;13.50;;;6.30;;
29776;SDS011;16677;52.224;7.484;2023-10-13T10:07:55;12.57;;;6.10;;
29776;SDS011;16677;52.224;7.484;2023-10-13T10:10:23;10.50;;;5.70;;
29776;SDS011;16677;52.224;7.484;2023-10-13T10:13:08;17.10;;;6.68;;
29776;SDS011;16677;52.224;7.484;2023-10-13T10:16:08;10.23;;;5.75;;
29776;SDS011;16677;52.224;7.484;2023-10-13T10:18:41;12.07;;;5.72;;
29776;SDS011;16677;52.224;7.484;2023-10-13T10:21:09;13.77;;;6.30;;
29776;SDS011;16677;52.224;7.484;2023-10-13T10:23:37;9.43;;;5.72;;
29776;SDS011;16677;52.224;7.484;2023-10-13T10:26:10;12.83;;;5.63;;
29776;SDS011;16677;52.224;7.484;2023-10-13T10:28:43;14.60;;;6.20;;
29776;SDS011;16677;52.224;7.484;2023-10-13T10:31:10;15.73;;;6.00;;
29776;SDS011;16677;52.224;7.484;2023-10-13T10:33:46;16.00;;;5.90;;
29776;SDS011;16677;52.224;7.484;2023-10-13T10:36:17;10.20;;;6.47;;
29776;SDS011;16677;52.224;7.484;2023-10-13T10:38:56;13.85;;;6.38;;
29776;SDS011;16677;52.224;7.484;2023-10-13T10:41:30;12.48;;;5.95;;
29776;SDS011;16677;52.224;7.484;2023-10-13T10:44:13;10.23;;;5.87;;
29776;SDS011;16677;52.224;7.484;2023-10-13T10:46:45;10.05;;;6.03;;
29776;SDS011;16677;52.224;7.484;2023-10-13T10:49:26;11.45;;;6.07;;
29776;SDS011;16677;52.224;7.484;2023-10-13T10:52:00;10.10;;;5.93;;
29776;SDS011;16677;52.224;7.484;2023-10-13T10:54:32;15.82;;;6.10;;
29776;SDS011;16677;52.224;7.484;2023-10-13T10:57:01;10.80;;;5.78;;
29776;SDS011;16677;52.224;7.484;2023-10-13T10:59:38;11.02;;;6.00;;
29776;SDS011;16677;52.224;7.484;2023-10-13T11:02:08;13.38;;;5.78;;
29776;SDS011;16677;52.224;7.484;2023-10-13T11:04:41;10.10;;;6.00;;
29776;SDS011;16677;52.224;7.484;2023-10-13T11:07:24;15.98;;;5.90;;
29776;SDS011;16677;52.224;7.484;2023-10-13T11:09:52;12.55;;;6.22;;
29776;SDS011;16677;52.224;7.484;2023-10-13T11:12:19;14.23;;;6.20;;
29776;SDS011;16677;52.224;7.484;2023-10-13T11:15:08;10.82;;;6.22;;
29776;SDS011;16677;52.224;7.484;2023-10-13T11:18:00;11.65;;;5.68;;
29776;SDS011;16677;52.224;7.484;2023-10-13T11:20:32;9.32;;;6.07;;
29776;SDS011;16677;52.224;7.484;2023-10-13T11:23:10;12.20;;;6.05;;
29776;SDS011;16677;52.224;7.484;2023-10-13T11:25:41;13.65;;;5.93;;
29776;SDS011;16677;52.224;7.484;2023-10-13T11:28:16;10.65;;;5.88;;
29776;SDS011;16677;52.224;7.484;2023-10-13T11:30:44;15.82;;;6.45;;
29776;SDS011;16677;52.224;7.484;2023-10-13T11:33:17;10.30;;;6.03;;
29776;SDS011;16677;52.224;7.484;2023-10-13T11:35:45;12.60;;;6.07;;
29776;SDS011;16677;52.224;7.484;2023-10-13T11:43:34;15.02;;;5.97;;
29776;SDS011;16677;52.224;7.484;2023-10-13T11:46:08;8.75;;;5.15;;
29776;SDS011;16677;52.224;7.484;2023-10-13T11:48:44;11.68;;;6.10;;
29776;SDS011;16677;52.224;7.484;2023-10-13T11:51:21;14.43;;;5.80;;
29776;SDS011;16677;52.224;7.484;2023-10-13T11:53:52;12.25;;;6.25;;
29776;SDS011;16677;52.224;7.484;2023-10-13T11:56:19;14.50;;;5.95;;
29776;SDS011;16677;52.224;7.484;2023-10-13T11:58:50;13.45;;;5.60;;
29776;SDS011;16677;52.224;7.484;2023-10-13T12:01:18;14.80;;;6.35;;
29776;SDS011;16677;52.224;7.484;2023-10-13T12:03:45;13.55;;;6.68;;
29776;SDS011;16677;52.224;7.484;2023-10-13T12:06:33;12.60;;;5.78;;
29776;SDS011;16677;52.224;7.484;2023-10-13T12:11:45;11.82;;;6.07;;
29776;SDS011;16677;52.224;7.484;2023-10-13T12:14:14;17.90;;;7.20;;
29776;SDS011;16677;52.224;7.484;2023-10-13T12:16:54;14.25;;;6.35;;
29776;SDS011;16677;52.224;7.484;2023-10-13T12:19:23;12.88;;;6.22;;
29776;SDS011;16677;52.224;7.484;2023-10-13T12:21:51;13.73;;;6.30;;
29776;SDS011;16677;52.224;7.484;2023-10-13T12:24:22;15.93;;;6.35;;
29776;SDS011;16677;52.224;7.484;2023-10-13T12:27:18;17.58;;;6.38;;
29776;SDS011;16677;52.224;7.484;2023-10-13T12:29:52;11.20;;;5.97;;
29776;SDS011;16677;52.224;7.484;2023-10-13T12:32:19;15.68;;;5.85;;
29776;SDS011;16677;52.224;7.484;2023-10-13T12:34:57;13.88;;;6.65;;
29776;SDS011;16677;52.224;7.484;2023-10-13T12:37:31;11.45;;;5.70;;
29776;SDS011;16677;52.224;7.484;2023-10-13T12:40:18;13.27;;;6.70;;
29776;SDS011;16677;52.224;7.484;2023-10-13T12:43:04;15.57;;;6.38;;
29776;SDS011;16677;52.224;7.484;2023-10-13T12:45:50;12.80;;;6.50;;
29776;SDS011;16677;52.224;7.484;2023-10-13T12:48:37;12.35;;;6.65;;
29776;SDS011;16677;52.224;7.484;2023-10-13T12:51:25;8.50;;;5.78;;
29776;SDS011;16677;52.224;7.484;2023-10-13T12:54:00;14.10;;;5.85;;
29776;SDS011;16677;52.224;7.484;2023-10-13T12:56:42;10.95;;;6.32;;
29776;SDS011;16677;52.224;7.484;2023-10-13T12:59:10;11.68;;;5.97;;
29776;SDS011;16677;52.224;7.484;2023-10-13T13:01:40;16.98;;;6.30;;
29776;SDS011;16677;52.224;7.484;2023-10-13T13:04:11;12.00;;;5.97;;
29776;SDS011;16677;52.224;7.484;2023-10-13T13:06:48;12.40;;;6.65;;
29776;SDS011;16677;52.224;7.484;2023-10-13T13:09:16;12.73;;;6.32;;
29776;SDS011;16677;52.224;7.484;2023-10-13T13:11:52;13.55;;;6.38;;
29776;SDS011;16677;52.224;7.484;2023-10-13T13:14:26;17.50;;;6.82;;
29776;SDS011;16677;52.224;7.484;2023-10-13T13:16:56;10.13;;;6.95;;
29776;SDS011;16677;52.224;7.484;2023-10-13T13:19:35;12.63;;;6.72;;
29776;SDS011;16677;52.224;7.484;2023-10-13T13:22:06;12.18;;;6.95;;
29776;SDS011;16677;52.224;7.484;2023-10-13T13:24:40;12.77;;;7.13;;
29776;SDS011;16677;52.224;7.484;2023-10-13T13:27:13;12.02;;;6.70;;
29776;SDS011;16677;52.224;7.484;2023-10-13T13:29:41;11.60;;;6.10;;
29776;SDS011;16677;52.224;7.484;2023-10-13T13:32:08;14.23;;;7.00;;
29776;SDS011;16677;52.224;7.484;2023-10-13T13:34:52;13.30;;;6.30;;
29776;SDS011;16677;52.224;7.484;2023-10-13T13:37:31;15.85;;;7.13;;
29776;SDS011;16677;52.224;7.484;2023-10-13T13:39:58;12.95;;;6.35;;
29776;SDS011;16677;52.224;7.484;2023-10-13T13:42:47;14.95;;;6.95;;
29776;SDS011;16677;52.224;7.484;2023-10-13T13:45:18;12.25;;;5.78;;
29776;SDS011;16677;52.224;7.484;2023-10-13T13:47:54;16.40;;;6.75;;
29776;SDS011;16677;52.224;7.484;2023-10-13T13:50:21;20.27;;;6.57;;
29776;SDS011;16677;52.224;7.484;2023-10-13T13:52:56;12.15;;;6.00;;
29776;SDS011;16677;52.224;7.484;2023-10-13T13:55:25;18.23;;;6.63;;
29776;SDS011;16677;52.224;7.484;2023-10-13T13:57:58;11.63;;;7.30;;
29776;SDS011;16677;52.224;7.484;2023-10-13T14:00:25;13.23;;;5.95;;
29776;SDS011;16677;52.224;7.484;2023-10-13T14:03:15;16.48;;;6.88;;
29776;SDS011;16677;52.224;7.484;2023-10-13T14:06:15;21.33;;;6.95;;
29776;SDS011;16677;52.224;7.484;2023-10-13T14:08:51;12.20;;;6.63;;
29776;SDS011;16677;52.224;7.484;2023-10-13T14:11:25;10.68;;;5.68;;
29776;SDS011;16677;52.224;7.484;2023-10-13T14:14:15;14.02;;;6.60;;
29776;SDS011;16677;52.224;7.484;2023-10-13T14:16:52;15.48;;;6.65;;
29776;SDS011;16677;52.224;7.484;2023-10-13T14:19:20;15.82;;;6.30;;
29776;SDS011;16677;52.224;7.484;2023-10-13T14:21:57;18.85;;;7.65;;
29776;SDS011;16677;52.224;7.484;2023-10-13T14:24:25;12.90;;;6.15;;
29776;SDS011;16677;52.224;7.484;2023-10-13T14:27:00;13.75;;;6.75;;
29776;SDS011;16677;52.224;7.484;2023-10-13T14:29:35;16.60;;;6.28;;
29776;SDS011;16677;52.224;7.484;2023-10-13T14:32:09;16.65;;;6.28;;
29776;SDS011;16677;52.224;7.484;2023-10-13T14:34:42;16.52;;;6.30;;
29776;SDS011;16677;52.224;7.484;2023-10-13T14:37:21;15.25;;;5.55;;
29776;SDS011;16677;52.224;7.484;2023-10-13T14:39:57;9.80;;;5.40;;
29776;SDS011;16677;52.224;7.484;2023-10-13T14:42:26;17.60;;;6.72;;
29776;SDS011;16677;52.224;7.484;2023-10-13T14:44:54;9.43;;;5.30;;
29776;SDS011;16677;52.224;7.484;2023-10-13T14:47:24;16.95;;;6.00;;
29776;SDS011;16677;52.224;7.484;2023-10-13T14:52:26;13.93;;;5.75;;
29776;SDS011;16677;52.224;7.484;2023-10-13T14:54:53;16.25;;;6.03;;
29776;SDS011;16677;52.224;7.484;2023-10-13T14:57:23;14.18;;;6.13;;
29776;SDS011;16677;52.224;7.484;2023-10-13T14:59:52;14.45;;;6.10;;
29776;SDS011;16677;52.224;7.484;2023-10-13T15:02:24;11.82;;;5.93;;
29776;SDS011;16677;52.224;7.484;2023-10-13T15:04:51;10.30;;;5.47;;
29776;SDS011;16677;52.224;7.484;2023-10-13T15:07:18;12.98;;;5.88;;
29776;SDS011;16677;52.224;7.484;2023-10-13T15:09:46;13.43;;;6.25;;
29776;SDS011;16677;52.224;7.484;2023-10-13T15:12:15;13.75;;;5.40;;
29776;SDS011;16677;52.224;7.484;2023-10-13T15:14:48;14.93;;;6.75;;
29776;SDS011;16677;52.224;7.484;2023-10-13T15:17:15;13.57;;;5.50;;
29776;SDS011;16677;52.224;7.484;2023-10-13T15:19:43;13.55;;;6.28;;
29776;SDS011;16677;52.224;7.484;2023-10-13T15:22:10;16.67;;;6.68;;
29776;SDS011;16677;52.224;7.484;2023-10-13T15:24:43;13.40;;;5.70;;
29776;SDS011;16677;52.224;7.484;2023-10-13T15:27:11;14.30;;;5.85;;
29776;SDS011;16677;52.224;7.484;2023-10-13T15:29:39;18.45;;;6.47;;
29776;SDS011;16677;52.224;7.484;2023-10-13T15:32:06;12.70;;;6.13;;
29776;SDS011;16677;52.224;7.484;2023-10-13T15:34:42;14.93;;;5.68;;
29776;SDS011;16677;52.224;7.484;2023-10-13T15:37:09;15.07;;;5.60;;
29776;SDS011;16677;52.224;7.484;2023-10-13T15:39:39;11.40;;;5.38;;
29776;SDS011;16677;52.224;7.484;2023-10-13T15:42:06;17.67;;;5.68;;
29776;SDS011;16677;52.224;7.484;2023-10-13T15:44:33;14.32;;;6.32;;
29776;SDS011;16677;52.224;7.484;2023-10-13T15:47:01;9.40;;;4.57;;
29776;SDS011;16677;52.224;7.484;2023-10-13T15:49:31;10.45;;;5.22;;
29776;SDS011;16677;52.224;7.484;2023-10-13T15:52:01;11.93;;;5.05;;